Latest Weather Observations for Point Fawcett

IDD60901

Issued at 7:31 pm CST Saturday 31 January 2015 (issued every 10 minutes, with the page automatically refreshed every 10 minutes)

About weather observations | Map of Darwin area stations | Latest observations for Darwin area | Other Formats
Station Details ID: 200731 Name: POINT FAWCETT Lat: -11.76 Lon: 130.03 Height: 6.5 m
Data from the previous 72 hours. | See also: Recent months at Point Fawcett
Date/Time
CST
Tmp

°C
App
Tmp
°C
Dew
Point
°C
Rel
Hum
%
Delta-T

°C
Wind Press
QNH
hPa
Press
MSL
hPa
Rain
since
9 am
mm
Dir
 
Spd
km/h
Gust
km/h
Spd
kts
Gust
kts
31/07:30pm 29.3 31.3 24.6 76 3.3 WSW 22 30 12 16 1007.3 - -
31/07:00pm 29.9 33.0 25.4 77 3.2 WSW 19 26 10 14 1007.1 - -
31/06:30pm 30.1 32.9 24.9 73 3.7 WSW 19 30 10 16 1006.9 - -
31/06:00pm 30.9 33.6 25.0 71 4.2 WSW 20 28 11 15 1006.3 1006.2 -
31/05:30pm 30.8 33.0 24.9 71 4.1 WSW 22 30 12 16 1006.2 - -
31/05:00pm 30.8 33.0 24.9 71 4.1 WSW 22 32 12 17 1006.1 - -
31/04:30pm 30.7 33.7 25.5 74 3.7 WSW 20 28 11 15 1006.2 - -
31/04:00pm 31.2 33.7 25.3 71 4.2 WSW 22 32 12 17 1006.3 - -
31/03:30pm 30.9 31.6 24.3 68 4.6 WSW 28 44 15 24 1006.6 - -
31/03:00pm 31.3 34.2 25.9 73 3.9 WSW 22 32 12 17 1006.8 1006.7 -
31/02:30pm 31.8 34.8 26.1 72 4.1 WSW 22 32 12 17 1006.9 - -
31/02:00pm 31.0 34.0 25.6 73 3.8 WSW 20 30 11 16 1007.3 - -
31/01:30pm 31.4 34.2 25.3 70 4.3 WSW 20 32 11 17 1007.6 - -
31/01:00pm 31.3 34.1 24.9 69 4.5 WSW 19 32 10 17 1008.0 - -
31/12:30pm 31.7 34.9 25.8 71 4.2 WSW 20 32 11 17 1008.5 - -
31/12:00pm 31.2 34.5 26.0 74 3.7 W 20 28 11 15 1008.7 1008.6 -
31/11:30am 31.0 34.7 26.3 76 3.4 W 19 26 10 14 1008.8 - -
31/11:00am 31.2 34.5 26.0 74 3.7 W 20 24 11 13 1009.0 - -
31/10:30am 30.1 33.2 25.4 76 3.3 W 19 28 10 15 1009.3 - -
31/10:00am 30.4 33.1 25.7 76 3.3 W 22 30 12 16 1009.4 - -
31/09:30am 29.5 32.0 25.3 78 3.0 W 22 32 12 17 1009.4 - -
31/09:00am 29.4 32.4 25.2 78 3.0 W 19 28 10 15 1009.3 1009.2 -
31/08:30am 29.0 32.2 25.6 82 2.4 WNW 19 24 10 13 1009.1 - -
31/07:30am 28.7 31.4 25.1 81 2.5 W 20 28 11 15 1008.5 - -
31/07:00am 28.5 31.2 25.1 82 2.4 W 20 26 11 14 1008.1 - -
31/06:30am 28.5 31.3 25.3 83 2.2 WNW 20 28 11 15 1007.8 - -
31/06:00am 28.4 31.6 25.0 82 2.4 W 17 20 9 11 1007.8 1007.7 -
31/05:00am 28.4 31.4 25.2 83 2.2 W 19 24 10 13 1007.6 - -
31/04:30am 28.2 30.9 24.8 82 2.4 W 19 24 10 13 1007.4 - -
31/04:00am 28.3 31.2 25.1 83 2.2 W 19 26 10 14 1007.2 - -
31/03:30am 28.4 31.6 25.0 82 2.4 WSW 17 24 9 13 1007.3 - -
31/03:00am 28.4 31.2 25.0 82 2.4 W 19 24 10 13 1007.4 1007.3 -
31/02:30am 28.5 31.5 25.5 84 2.1 W 20 30 11 16 1007.8 - -
31/02:00am 28.5 31.5 25.3 83 2.2 W 19 24 10 13 1008.1 - -
31/01:30am 28.6 32.1 25.4 83 2.3 W 17 24 9 13 1008.6 - -
31/01:00am 28.5 31.4 25.1 82 2.4 W 19 24 10 13 1008.7 - -
31/12:30am 28.6 32.0 25.2 82 2.4 W 17 22 9 12 1009.0 - -
31/12:00am 28.5 31.8 25.1 82 2.4 W 17 20 9 11 1009.1 1009.0 -
 
Date/Time
CST
Tmp

°C
App
Tmp
°C
Dew
Point
°C
Rel
Hum
%
Delta-T

°C
Wind Press
QNH
hPa
Press
MSL
hPa
Rain
since
9 am
mm
Dir
 
Spd
km/h
Gust
km/h
Spd
kts
Gust
kts
30/11:30pm 28.6 32.3 25.2 82 2.4 W 15 20 8 11 1009.5 - -
30/11:00pm 28.6 32.1 25.4 83 2.3 W 17 22 9 12 1009.6 - -
30/10:30pm 28.6 31.8 25.0 81 2.5 W 17 20 9 11 1009.5 - -
30/10:00pm 28.7 31.6 25.1 81 2.5 W 19 24 10 13 1009.2 - -
30/09:30pm 28.9 31.7 25.3 81 2.5 W 20 24 11 13 1009.0 - -
30/09:00pm 28.8 31.6 25.2 81 2.5 W 20 24 11 13 1008.7 1008.6 -
30/08:30pm 28.6 31.4 25.0 81 2.5 W 19 22 10 12 1008.2 - -
30/08:00pm 28.6 31.6 25.2 82 2.4 W 19 24 10 13 1007.8 - -
30/07:30pm 28.5 31.1 24.9 81 2.5 W 20 24 11 13 1007.5 - -
30/07:00pm 28.8 31.9 25.4 82 2.4 W 19 24 10 13 1007.0 - -
30/06:30pm 29.3 32.5 25.5 80 2.7 W 19 24 10 13 1007.0 - -
30/06:00pm 29.4 31.4 25.2 78 3.0 W 24 30 13 16 1006.5 1006.4 -
30/05:30pm 29.9 32.0 25.4 77 3.2 WNW 24 28 13 15 1006.1 - -
30/05:00pm 29.9 32.8 25.9 79 2.8 WNW 22 30 12 16 1006.1 - -
30/04:30pm 30.5 33.0 26.0 77 3.2 WNW 24 28 13 15 1005.8 - -
30/04:00pm 30.1 32.6 26.0 78 2.9 NW 24 30 13 16 1005.8 - -
30/03:30pm 30.6 32.9 25.7 75 3.5 NW 24 30 13 16 1006.1 - -
30/03:00pm 30.5 32.8 25.6 75 3.5 NW 24 32 13 17 1006.5 1006.4 -
30/02:30pm 31.4 34.4 25.5 71 4.2 NW 20 26 11 14 1006.7 - -
30/02:00pm 31.4 34.4 26.2 74 3.7 WNW 22 28 12 15 1007.1 - -
30/01:30pm 31.0 33.5 26.0 74 3.6 WNW 24 30 13 16 1007.6 - -
30/01:00pm 30.6 33.3 26.3 78 3.1 WNW 24 32 13 17 1008.2 - -
30/12:30pm 30.6 35.2 26.5 79 2.9 WNW 15 19 8 10 1008.4 - -
30/12:00pm 29.6 33.4 25.3 77 3.0 WNW 15 20 8 11 1008.4 1008.3 -
30/11:30am 29.0 31.1 25.4 81 2.5 WNW 24 30 13 16 1008.7 - -
30/11:00am 29.2 29.6 24.5 76 3.3 WNW 30 39 16 21 1008.9 - -
30/10:30am 30.6 33.6 26.7 80 2.8 NW 24 32 13 17 1009.2 - -
30/10:00am 30.2 32.0 25.5 76 3.3 NW 26 32 14 17 1009.1 - -
30/09:30am 29.0 31.7 25.6 82 2.4 NW 22 28 12 15 1009.0 - -
30/09:00am 28.5 31.8 25.7 85 2.0 NNW 19 28 10 15 1008.7 1008.6 -
30/08:30am 28.1 32.3 25.9 88 1.6 NNW 15 19 8 10 1008.6 - -
30/08:00am 27.4 33.7 26.5 95 0.6 NE 6 9 3 5 1007.9 - -
30/07:30am 25.9 31.0 25.0 95 0.6 NE 7 9 4 5 1007.6 - -
30/07:00am 24.5 28.3 23.5 94 0.7 E 9 11 5 6 1007.0 - -
30/06:30am 24.0 27.6 23.0 94 0.7 ENE 9 11 5 6 1006.7 - -
30/06:00am 24.0 27.8 22.8 93 0.8 ESE 7 9 4 5 1006.1 1006.0 -
30/05:30am 24.2 28.3 23.0 93 0.8 SSE 6 7 3 4 1005.6 - -
30/05:00am 24.3 28.4 22.9 92 0.9 S 6 9 3 5 1005.5 - -
30/04:30am 24.5 28.4 22.9 91 1.1 SE 7 9 4 5 1005.6 - -
30/04:00am 25.0 27.5 23.2 90 1.2 S 15 28 8 15 1006.7 - -
30/03:30am 26.7 32.2 25.3 92 1.0 SW 6 13 3 7 1006.8 - -
30/03:00am 26.6 31.1 25.2 92 1.0 W 11 24 6 13 1006.6 1006.5 -
30/02:30am 25.9 31.4 24.7 93 0.8 N 4 13 2 7 1007.1 - -
30/02:00am 25.7 30.0 24.3 92 1.0 ENE 9 13 5 7 1007.5 - -
30/01:30am 25.5 29.6 23.9 91 1.1 ENE 9 15 5 8 1007.9 - -
30/01:00am 25.4 29.7 23.6 90 1.2 ENE 7 9 4 5 1008.3 - -
30/12:30am 25.5 29.7 23.4 88 1.4 ENE 7 11 4 6 1008.7 - -
30/12:00am 25.8 29.6 23.5 87 1.6 ENE 9 15 5 8 1009.0 1008.9 -
 
Date/Time
CST
Tmp

°C
App
Tmp
°C
Dew
Point
°C
Rel
Hum
%
Delta-T

°C
Wind Press
QNH
hPa
Press
MSL
hPa
Rain
since
9 am
mm
Dir
 
Spd
km/h
Gust
km/h
Spd
kts
Gust
kts
29/11:30pm 26.0 27.9 23.5 86 1.7 N 19 28 10 15 1009.1 - -
29/11:00pm 27.7 29.2 24.3 82 2.4 NW 24 30 13 16 1008.9 - -
29/10:30pm 28.3 31.3 24.7 81 2.5 NNW 17 22 9 12 1008.5 - -
29/10:00pm 28.7 32.1 25.9 85 2.0 NNW 19 24 10 13 1008.2 - -
29/09:30pm 28.8 32.9 25.8 84 2.1 NNW 15 20 8 11 1008.1 - -
29/09:00pm 28.7 32.9 25.3 82 2.4 NNW 13 17 7 9 1007.8 1007.7 -
29/08:30pm 28.7 32.1 24.7 79 2.8 NNW 15 17 8 9 1007.4 - -
29/08:00pm 28.8 32.8 25.0 80 2.7 NW 13 19 7 10 1006.9 - -
29/07:30pm 28.9 32.9 25.1 80 2.7 NW 13 17 7 9 1006.3 - -
29/07:00pm 29.3 34.2 25.3 79 2.8 NW 9 11 5 6 1005.8 - -
29/06:30pm 29.5 34.8 25.3 78 3.0 NW 7 9 4 5 1005.6 - -
29/06:00pm 30.2 35.5 25.3 75 3.5 NW 7 9 4 5 1005.0 1004.9 -
29/05:30pm 30.6 36.0 25.2 73 3.8 NW 6 7 3 4 1004.5 - -
29/05:00pm 31.0 35.4 25.1 71 4.2 WNW 11 13 6 7 1004.2 - -
29/04:30pm 30.8 35.0 25.4 73 3.8 WNW 13 17 7 9 1004.2 - -
29/04:00pm 30.9 34.7 25.3 72 4.0 WNW 15 19 8 10 1003.9 - -
29/03:30pm 31.2 35.7 25.8 73 3.8 NW 13 19 7 10 1004.6 - -
29/03:00pm 31.0 35.6 26.0 74 3.6 NW 13 19 7 10 1004.9 1004.8 -
29/02:30pm 30.8 36.0 26.3 77 3.2 NW 11 15 6 8 1005.0 - -
29/02:00pm 29.7 34.2 24.6 74 3.6 WNW 9 13 5 7 1004.9 - -
29/01:30pm 30.7 36.1 26.0 76 3.3 WNW 9 13 5 7 1005.2 - -
29/01:00pm 30.5 35.2 25.6 75 3.5 WNW 11 13 6 7 1006.0 - -
29/12:30pm 30.6 35.2 25.4 74 3.7 NNW 11 13 6 7 1006.6 - -
29/12:00pm 30.5 35.2 24.9 72 3.9 NNW 9 13 5 7 1006.8 1006.7 -
29/11:30am 30.0 34.3 24.2 71 4.0 NNW 9 13 5 7 1007.1 - -
29/11:00am 30.0 34.5 24.6 73 3.8 N 9 15 5 8 1007.4 - -
29/10:30am 30.4 34.8 24.5 70 4.1 N 9 13 5 7 1007.6 - -
29/10:00am 29.8 34.7 24.7 74 3.6 N 7 11 4 6 1007.7 - -
29/09:30am 29.5 35.2 25.9 81 2.6 NNE 7 11 4 6 1007.5 - -
29/09:00am 28.2 33.9 25.6 86 1.8 NNE 6 9 3 5 1007.3 1007.2 -
29/08:30am 27.4 33.5 26.2 93 0.9 E 6 7 3 4 1007.2 - -
29/08:00am 26.3 31.6 25.3 94 0.7 ENE 7 7 4 4 1007.0 - -
29/07:30am 25.9 31.2 24.9 94 0.7 E 6 9 3 5 1006.5 - -
29/07:00am 25.0 30.7 23.8 93 0.8 CALM 0 0 0 0 1006.1 - -
29/06:30am 25.2 29.9 24.0 93 0.8 SE 6 7 3 4 1005.9 - -
29/06:00am 25.3 30.1 24.1 93 0.8 ESE 6 7 3 4 1005.8 1005.7 -
29/05:30am 25.4 30.1 24.0 92 1.0 SSE 6 9 3 5 1005.5 - -
29/05:00am 25.9 31.3 24.5 92 1.0 S 4 6 2 3 1005.5 - -
29/04:30am 26.1 30.7 24.7 92 1.0 WSW 9 13 5 7 1005.3 - -
29/04:00am 26.0 30.8 24.4 91 1.1 WSW 7 9 4 5 1004.7 - -
29/03:30am 26.2 30.7 24.6 91 1.1 WSW 9 13 5 7 1004.9 - -
29/03:00am 26.3 29.7 24.7 91 1.1 W 15 20 8 11 1005.3 1005.2 -
29/02:30am 26.1 29.8 24.5 91 1.1 W 13 17 7 9 1005.6 - -
29/02:00am 26.1 29.5 24.7 92 1.0 W 15 19 8 10 1006.0 - -
29/01:30am 25.8 29.0 24.9 95 0.6 NW 17 22 9 12 1006.5 - -
29/01:00am 24.7 29.3 23.8 95 0.6 E 6 7 3 4 1006.9 - -
29/12:30am 24.6 29.5 23.7 95 0.6 N 4 7 2 4 1007.2 - -
29/12:00am 24.1 28.1 23.1 94 0.7 SSE 7 9 4 5 1007.3 1007.2 -
 
Date/Time
CST
Tmp

°C
App
Tmp
°C
Dew
Point
°C
Rel
Hum
%
Delta-T

°C
Wind Press
QNH
hPa
Press
MSL
hPa
Rain
since
9 am
mm
Dir
 
Spd
km/h
Gust
km/h
Spd
kts
Gust
kts
28/11:30pm 24.1 28.1 23.1 94 0.7 SE 7 9 4 5 1007.2 - -
28/11:00pm 23.9 27.4 22.9 94 0.7 SE 9 11 5 6 1007.3 - -
28/10:30pm 23.7 26.6 22.5 93 0.8 SSE 11 17 6 9 1007.3 - -
28/10:00pm 23.7 26.9 22.3 92 0.9 S 9 13 5 7 1007.2 - -
28/09:30pm 24.5 28.4 22.9 91 1.1 ESE 7 9 4 5 1006.9 - -
28/09:00pm 24.4 27.5 22.8 91 1.1 N 11 19 6 10 1007.1 1007.0 -
28/08:30pm 24.8 27.7 23.8 94 0.7 NNW 15 19 8 10 1006.4 - -
28/08:00pm 25.2 29.9 24.0 93 0.8 NE 6 13 3 7 1006.3 - -

Latest Capital City Observations: Canberra | Sydney | Melbourne | Brisbane | Adelaide | Perth | Hobart | Darwin

Other Formats:

Comma delimited format used in spreadsheet applications
http://www.bom.gov.au/fwo/IDD60901/IDD60901.94122.axf

JavaScript Object Notation format (JSON) in row-major order
http://www.bom.gov.au/fwo/IDD60901/IDD60901.94122.json